KHOP

Campbell AAF (Fort Campbell) Airport

Fort Campbell/Hopkinsville, Kentucky, USA
METAR KHOP 212356Z AUTO 33004KT 4SM +RA OVC003 06/06 A3043 RMK AO2 RAE34DZB34E35RAB35 CIG 003V005 SLP308 P0015 60020 T00610060 10078 20059 53021
Observed Flight Rules
Feb-21 @ 23:56 UTC (5 hours ago) Instrument Flight Rules
Wind Visibility Clouds Conditions
330° at 4 knots 4 miles
  • Overcast at 300' AGL
  • Heavy Rain
Temperatures Readings Precipitation
Current 6°C / 43°F
Dewpoint 6°C / 43°F
Humidity 100%
Altimeter 30.43" Hg
Pressure 1030.8 hPa
Elevation 174
Current Rain 0.15
METAR KHOP 212356Z AUTO 33004KT 4SM +RA OVC003 06/06 A3043 RMK AO2 RAE34DZB34E35RAB35 CIG 003V005 SLP308 P0015 60020 T00610060 10078 20059 53021
Observed Flight Rules
Feb-21 @ 23:56 UTC
(5 hours ago)
LIFR
Wind Visibility
330° at 4 knots 4 miles
Clouds
  • Overcast at 300' AGL
Conditions
  • Heavy Rain
Temperature Dewpoint
6°C / 43°F 6°C / 43°F
Humidity Altimeter Pressure
100% 30.43" Hg 1030.8 hPa
Current Rain
0.15